sensor_id;sensor_type;location;lat;lon;timestamp;temperature;humidity
17948;DHT22;9099;47.958;11.366;2023-08-24T00:01:21;24.00;99.90
17948;DHT22;9099;47.958;11.366;2023-08-24T00:03:48;24.00;99.90
17948;DHT22;9099;47.958;11.366;2023-08-24T00:06:15;24.00;99.90
17948;DHT22;9099;47.958;11.366;2023-08-24T00:08:42;24.00;99.90
17948;DHT22;9099;47.958;11.366;2023-08-24T00:11:09;23.90;99.90
17948;DHT22;9099;47.958;11.366;2023-08-24T00:13:40;23.90;99.90
17948;DHT22;9099;47.958;11.366;2023-08-24T00:16:08;23.90;99.90
17948;DHT22;9099;47.958;11.366;2023-08-24T00:18:35;23.90;99.90
17948;DHT22;9099;47.958;11.366;2023-08-24T00:21:02;23.90;99.90
17948;DHT22;9099;47.958;11.366;2023-08-24T00:23:29;23.90;99.90
17948;DHT22;9099;47.958;11.366;2023-08-24T00:25:56;23.90;99.90
17948;DHT22;9099;47.958;11.366;2023-08-24T00:28:23;23.90;99.90
17948;DHT22;9099;47.958;11.366;2023-08-24T00:30:49;23.90;99.90
17948;DHT22;9099;47.958;11.366;2023-08-24T00:33:18;23.90;99.90
17948;DHT22;9099;47.958;11.366;2023-08-24T00:35:45;23.90;99.90
17948;DHT22;9099;47.958;11.366;2023-08-24T00:38:11;23.90;99.90
17948;DHT22;9099;47.958;11.366;2023-08-24T00:40:38;23.80;99.90
17948;DHT22;9099;47.958;11.366;2023-08-24T00:43:07;23.70;99.90
17948;DHT22;9099;47.958;11.366;2023-08-24T00:45:34;23.60;99.90
17948;DHT22;9099;47.958;11.366;2023-08-24T00:48:02;23.50;99.90
17948;DHT22;9099;47.958;11.366;2023-08-24T00:50:30;23.50;99.90
17948;DHT22;9099;47.958;11.366;2023-08-24T00:52:57;23.40;99.90
17948;DHT22;9099;47.958;11.366;2023-08-24T00:55:24;23.20;99.90
17948;DHT22;9099;47.958;11.366;2023-08-24T00:57:51;23.10;99.90
17948;DHT22;9099;47.958;11.366;2023-08-24T01:00:18;23.00;99.90
17948;DHT22;9099;47.958;11.366;2023-08-24T01:02:47;22.90;99.90
17948;DHT22;9099;47.958;11.366;2023-08-24T01:05:14;22.80;99.90
17948;DHT22;9099;47.958;11.366;2023-08-24T01:07:42;22.70;99.90
17948;DHT22;9099;47.958;11.366;2023-08-24T01:10:10;22.50;99.90
17948;DHT22;9099;47.958;11.366;2023-08-24T01:12:58;22.50;99.90
17948;DHT22;9099;47.958;11.366;2023-08-24T01:15:31;22.40;99.90
17948;DHT22;9099;47.958;11.366;2023-08-24T01:18:04;22.40;99.90
17948;DHT22;9099;47.958;11.366;2023-08-24T01:20:32;22.30;99.90
17948;DHT22;9099;47.958;11.366;2023-08-24T01:25:53;22.30;99.90
17948;DHT22;9099;47.958;11.366;2023-08-24T01:28:22;22.40;99.90
17948;DHT22;9099;47.958;11.366;2023-08-24T01:30:49;22.40;99.90
17948;DHT22;9099;47.958;11.366;2023-08-24T01:33:16;22.40;99.90
17948;DHT22;9099;47.958;11.366;2023-08-24T01:35:43;22.40;99.90
17948;DHT22;9099;47.958;11.366;2023-08-24T01:38:10;22.40;99.90
17948;DHT22;9099;47.958;11.366;2023-08-24T01:40:45;22.40;99.90
17948;DHT22;9099;47.958;11.366;2023-08-24T01:43:15;22.40;99.90
17948;DHT22;9099;47.958;11.366;2023-08-24T01:45:46;22.40;99.90
17948;DHT22;9099;47.958;11.366;2023-08-24T01:48:14;22.30;99.90
17948;DHT22;9099;47.958;11.366;2023-08-24T01:50:42;22.30;99.90
17948;DHT22;9099;47.958;11.366;2023-08-24T01:53:09;22.30;99.90
17948;DHT22;9099;47.958;11.366;2023-08-24T01:55:36;22.30;99.90
17948;DHT22;9099;47.958;11.366;2023-08-24T01:58:03;22.30;99.90
17948;DHT22;9099;47.958;11.366;2023-08-24T02:00:30;22.30;99.90
17948;DHT22;9099;47.958;11.366;2023-08-24T02:02:58;22.20;99.90
17948;DHT22;9099;47.958;11.366;2023-08-24T02:05:25;22.20;99.90
17948;DHT22;9099;47.958;11.366;2023-08-24T02:07:53;22.20;99.90
17948;DHT22;9099;47.958;11.366;2023-08-24T02:10:20;22.20;99.90
17948;DHT22;9099;47.958;11.366;2023-08-24T02:12:47;22.20;99.90
17948;DHT22;9099;47.958;11.366;2023-08-24T02:15:14;22.20;99.90
17948;DHT22;9099;47.958;11.366;2023-08-24T02:17:41;22.20;99.90
17948;DHT22;9099;47.958;11.366;2023-08-24T02:20:10;22.10;99.90
17948;DHT22;9099;47.958;11.366;2023-08-24T02:22:37;22.10;99.90
17948;DHT22;9099;47.958;11.366;2023-08-24T02:25:05;22.10;99.90
17948;DHT22;9099;47.958;11.366;2023-08-24T02:27:32;22.20;99.90
17948;DHT22;9099;47.958;11.366;2023-08-24T02:29:59;22.20;99.90
17948;DHT22;9099;47.958;11.366;2023-08-24T02:32:26;22.20;99.90
17948;DHT22;9099;47.958;11.366;2023-08-24T02:34:53;22.10;99.90
17948;DHT22;9099;47.958;11.366;2023-08-24T02:37:21;22.10;99.90
17948;DHT22;9099;47.958;11.366;2023-08-24T02:39:48;22.10;99.90
17948;DHT22;9099;47.958;11.366;2023-08-24T02:42:15;22.10;99.90
17948;DHT22;9099;47.958;11.366;2023-08-24T02:44:42;22.10;99.90
17948;DHT22;9099;47.958;11.366;2023-08-24T02:47:09;22.10;99.90
17948;DHT22;9099;47.958;11.366;2023-08-24T02:49:36;22.10;99.90
17948;DHT22;9099;47.958;11.366;2023-08-24T02:52:03;22.10;99.90
17948;DHT22;9099;47.958;11.366;2023-08-24T02:54:31;22.10;99.90
17948;DHT22;9099;47.958;11.366;2023-08-24T02:56:58;22.00;99.90
17948;DHT22;9099;47.958;11.366;2023-08-24T02:59:25;22.00;99.90
17948;DHT22;9099;47.958;11.366;2023-08-24T03:01:52;21.90;99.90
17948;DHT22;9099;47.958;11.366;2023-08-24T03:04:19;21.80;99.90
17948;DHT22;9099;47.958;11.366;2023-08-24T03:06:47;21.80;99.90
17948;DHT22;9099;47.958;11.366;2023-08-24T03:09:13;21.70;99.90
17948;DHT22;9099;47.958;11.366;2023-08-24T03:11:42;21.70;99.90
17948;DHT22;9099;47.958;11.366;2023-08-24T03:14:08;21.70;99.90
17948;DHT22;9099;47.958;11.366;2023-08-24T03:16:37;21.70;99.90
17948;DHT22;9099;47.958;11.366;2023-08-24T03:19:04;21.70;99.90
17948;DHT22;9099;47.958;11.366;2023-08-24T03:21:31;21.70;99.90
17948;DHT22;9099;47.958;11.366;2023-08-24T03:23:57;21.70;99.90
17948;DHT22;9099;47.958;11.366;2023-08-24T03:26:24;21.80;99.90
17948;DHT22;9099;47.958;11.366;2023-08-24T03:28:52;21.80;99.90
17948;DHT22;9099;47.958;11.366;2023-08-24T03:31:19;21.80;99.90
17948;DHT22;9099;47.958;11.366;2023-08-24T03:33:46;21.80;99.90
17948;DHT22;9099;47.958;11.366;2023-08-24T03:36:13;21.90;99.90
17948;DHT22;9099;47.958;11.366;2023-08-24T03:38:40;21.90;99.90
17948;DHT22;9099;47.958;11.366;2023-08-24T03:41:06;21.80;99.90
17948;DHT22;9099;47.958;11.366;2023-08-24T03:43:34;21.80;99.90
17948;DHT22;9099;47.958;11.366;2023-08-24T03:46:04;21.80;99.90
17948;DHT22;9099;47.958;11.366;2023-08-24T03:48:31;21.80;99.90
17948;DHT22;9099;47.958;11.366;2023-08-24T03:50:58;21.80;99.90
17948;DHT22;9099;47.958;11.366;2023-08-24T03:53:26;21.80;99.90
17948;DHT22;9099;47.958;11.366;2023-08-24T03:55:53;21.80;99.90
17948;DHT22;9099;47.958;11.366;2023-08-24T03:58:20;21.80;99.90
17948;DHT22;9099;47.958;11.366;2023-08-24T04:00:47;21.80;99.90
17948;DHT22;9099;47.958;11.366;2023-08-24T04:03:16;21.80;99.90
17948;DHT22;9099;47.958;11.366;2023-08-24T04:05:43;21.80;99.90
17948;DHT22;9099;47.958;11.366;2023-08-24T04:08:09;21.80;99.90
17948;DHT22;9099;47.958;11.366;2023-08-24T04:10:37;21.70;99.90
17948;DHT22;9099;47.958;11.366;2023-08-24T04:13:04;21.70;99.90
17948;DHT22;9099;47.958;11.366;2023-08-24T04:15:31;21.70;99.90
17948;DHT22;9099;47.958;11.366;2023-08-24T04:17:57;21.60;99.90
17948;DHT22;9099;47.958;11.366;2023-08-24T04:20:25;21.60;99.90
17948;DHT22;9099;47.958;11.366;2023-08-24T04:22:52;21.60;99.90
17948;DHT22;9099;47.958;11.366;2023-08-24T04:25:19;21.50;99.90
17948;DHT22;9099;47.958;11.366;2023-08-24T04:27:46;21.50;99.90
17948;DHT22;9099;47.958;11.366;2023-08-24T04:30:13;21.50;99.90
17948;DHT22;9099;47.958;11.366;2023-08-24T04:32:40;21.50;99.90
17948;DHT22;9099;47.958;11.366;2023-08-24T04:35:08;21.40;99.90
17948;DHT22;9099;47.958;11.366;2023-08-24T04:37:37;21.40;99.90
17948;DHT22;9099;47.958;11.366;2023-08-24T04:40:05;21.40;99.90
17948;DHT22;9099;47.958;11.366;2023-08-24T04:42:32;21.50;99.90
17948;DHT22;9099;47.958;11.366;2023-08-24T04:44:59;21.40;99.90
17948;DHT22;9099;47.958;11.366;2023-08-24T04:47:26;21.40;99.90
17948;DHT22;9099;47.958;11.366;2023-08-24T04:49:53;21.40;99.90
17948;DHT22;9099;47.958;11.366;2023-08-24T04:52:20;21.40;99.90
17948;DHT22;9099;47.958;11.366;2023-08-24T04:54:49;21.40;99.90
17948;DHT22;9099;47.958;11.366;2023-08-24T04:57:16;21.40;99.90
17948;DHT22;9099;47.958;11.366;2023-08-24T04:59:43;21.40;99.90
17948;DHT22;9099;47.958;11.366;2023-08-24T05:02:10;21.40;99.90
17948;DHT22;9099;47.958;11.366;2023-08-24T05:04:37;21.50;99.90
17948;DHT22;9099;47.958;11.366;2023-08-24T05:07:04;21.50;99.90
17948;DHT22;9099;47.958;11.366;2023-08-24T05:09:31;21.60;99.90
17948;DHT22;9099;47.958;11.366;2023-08-24T05:11:59;21.70;99.90
17948;DHT22;9099;47.958;11.366;2023-08-24T05:14:26;21.80;99.90
17948;DHT22;9099;47.958;11.366;2023-08-24T05:16:53;21.90;99.90
17948;DHT22;9099;47.958;11.366;2023-08-24T05:19:19;22.00;99.90
17948;DHT22;9099;47.958;11.366;2023-08-24T05:21:46;22.10;99.90
17948;DHT22;9099;47.958;11.366;2023-08-24T05:24:13;22.20;99.90
17948;DHT22;9099;47.958;11.366;2023-08-24T05:26:40;22.30;99.90
17948;DHT22;9099;47.958;11.366;2023-08-24T05:29:08;22.50;99.90
17948;DHT22;9099;47.958;11.366;2023-08-24T05:31:35;22.80;99.90
17948;DHT22;9099;47.958;11.366;2023-08-24T05:34:02;23.10;99.90
17948;DHT22;9099;47.958;11.366;2023-08-24T05:36:28;23.40;99.90
17948;DHT22;9099;47.958;11.366;2023-08-24T05:38:55;23.70;99.90
17948;DHT22;9099;47.958;11.366;2023-08-24T05:41:22;24.00;99.90
17948;DHT22;9099;47.958;11.366;2023-08-24T05:43:49;24.50;99.90
17948;DHT22;9099;47.958;11.366;2023-08-24T05:46:19;24.90;99.90
17948;DHT22;9099;47.958;11.366;2023-08-24T05:48:46;25.30;99.90
17948;DHT22;9099;47.958;11.366;2023-08-24T05:51:13;25.50;99.90
17948;DHT22;9099;47.958;11.366;2023-08-24T05:53:40;25.80;99.90
17948;DHT22;9099;47.958;11.366;2023-08-24T05:56:07;26.10;99.90
17948;DHT22;9099;47.958;11.366;2023-08-24T05:58:34;26.40;99.90
17948;DHT22;9099;47.958;11.366;2023-08-24T06:01:01;26.70;99.90
17948;DHT22;9099;47.958;11.366;2023-08-24T06:03:29;27.10;99.90
17948;DHT22;9099;47.958;11.366;2023-08-24T06:06:01;27.40;99.90
17948;DHT22;9099;47.958;11.366;2023-08-24T06:08:28;27.60;99.90
17948;DHT22;9099;47.958;11.366;2023-08-24T06:10:56;27.90;99.90
17948;DHT22;9099;47.958;11.366;2023-08-24T06:16:45;28.50;99.90
17948;DHT22;9099;47.958;11.366;2023-08-24T06:19:13;28.80;99.90
17948;DHT22;9099;47.958;11.366;2023-08-24T06:21:40;28.90;99.90
17948;DHT22;9099;47.958;11.366;2023-08-24T06:24:06;29.20;99.90
17948;DHT22;9099;47.958;11.366;2023-08-24T06:26:33;29.50;99.90
17948;DHT22;9099;47.958;11.366;2023-08-24T06:29:00;29.60;99.90
17948;DHT22;9099;47.958;11.366;2023-08-24T06:31:27;29.80;99.90
17948;DHT22;9099;47.958;11.366;2023-08-24T06:33:55;30.00;99.90
17948;DHT22;9099;47.958;11.366;2023-08-24T06:36:23;30.30;99.90
17948;DHT22;9099;47.958;11.366;2023-08-24T06:38:50;30.50;99.90
17948;DHT22;9099;47.958;11.366;2023-08-24T06:41:19;30.40;99.90
17948;DHT22;9099;47.958;11.366;2023-08-24T06:43:46;30.10;99.90
17948;DHT22;9099;47.958;11.366;2023-08-24T06:46:13;29.80;99.90
17948;DHT22;9099;47.958;11.366;2023-08-24T06:48:40;29.40;99.90
17948;DHT22;9099;47.958;11.366;2023-08-24T06:51:07;29.20;99.90
17948;DHT22;9099;47.958;11.366;2023-08-24T06:53:36;28.90;99.90
17948;DHT22;9099;47.958;11.366;2023-08-24T06:56:03;28.70;99.90
17948;DHT22;9099;47.958;11.366;2023-08-24T06:58:30;28.30;99.90
17948;DHT22;9099;47.958;11.366;2023-08-24T07:00:57;28.00;99.90
17948;DHT22;9099;47.958;11.366;2023-08-24T07:03:24;27.90;99.90
17948;DHT22;9099;47.958;11.366;2023-08-24T07:05:50;27.80;99.90
17948;DHT22;9099;47.958;11.366;2023-08-24T07:08:17;27.70;99.90
17948;DHT22;9099;47.958;11.366;2023-08-24T07:10:45;27.60;99.90
17948;DHT22;9099;47.958;11.366;2023-08-24T07:13:12;27.50;99.90
17948;DHT22;9099;47.958;11.366;2023-08-24T07:15:39;27.70;99.90
17948;DHT22;9099;47.958;11.366;2023-08-24T07:18:06;28.00;99.90
17948;DHT22;9099;47.958;11.366;2023-08-24T07:20:34;28.20;99.90
17948;DHT22;9099;47.958;11.366;2023-08-24T07:23:01;28.30;99.90
17948;DHT22;9099;47.958;11.366;2023-08-24T07:25:28;28.40;99.90
17948;DHT22;9099;47.958;11.366;2023-08-24T07:27:57;28.50;99.90
17948;DHT22;9099;47.958;11.366;2023-08-24T07:30:25;28.70;99.90
17948;DHT22;9099;47.958;11.366;2023-08-24T07:32:52;29.00;99.90
17948;DHT22;9099;47.958;11.366;2023-08-24T07:35:20;29.30;99.90
17948;DHT22;9099;47.958;11.366;2023-08-24T07:37:47;29.60;99.90
17948;DHT22;9099;47.958;11.366;2023-08-24T07:40:14;29.80;99.90
17948;DHT22;9099;47.958;11.366;2023-08-24T07:42:45;29.90;99.90
17948;DHT22;9099;47.958;11.366;2023-08-24T07:45:13;30.20;99.90
17948;DHT22;9099;47.958;11.366;2023-08-24T07:47:40;30.40;99.90
17948;DHT22;9099;47.958;11.366;2023-08-24T07:50:08;30.50;99.90
17948;DHT22;9099;47.958;11.366;2023-08-24T07:52:36;30.70;99.90
17948;DHT22;9099;47.958;11.366;2023-08-24T07:55:04;31.10;99.90
17948;DHT22;9099;47.958;11.366;2023-08-24T07:57:32;31.50;99.90
17948;DHT22;9099;47.958;11.366;2023-08-24T07:59:59;31.90;99.90
17948;DHT22;9099;47.958;11.366;2023-08-24T08:02:27;31.90;99.90
17948;DHT22;9099;47.958;11.366;2023-08-24T08:04:56;32.20;99.90
17948;DHT22;9099;47.958;11.366;2023-08-24T08:07:24;32.50;99.90
17948;DHT22;9099;47.958;11.366;2023-08-24T08:09:51;32.90;99.90
17948;DHT22;9099;47.958;11.366;2023-08-24T08:12:17;33.10;99.90
17948;DHT22;9099;47.958;11.366;2023-08-24T08:14:44;33.40;99.90
17948;DHT22;9099;47.958;11.366;2023-08-24T08:17:11;33.80;99.90
17948;DHT22;9099;47.958;11.366;2023-08-24T08:19:39;34.30;99.90
17948;DHT22;9099;47.958;11.366;2023-08-24T08:22:06;34.20;99.90
17948;DHT22;9099;47.958;11.366;2023-08-24T08:24:33;34.10;99.90
17948;DHT22;9099;47.958;11.366;2023-08-24T08:27:00;34.20;99.90
17948;DHT22;9099;47.958;11.366;2023-08-24T08:29:28;34.70;99.90
17948;DHT22;9099;47.958;11.366;2023-08-24T08:31:55;34.80;99.90
17948;DHT22;9099;47.958;11.366;2023-08-24T08:34:22;35.30;99.90
17948;DHT22;9099;47.958;11.366;2023-08-24T08:36:50;35.50;99.90
17948;DHT22;9099;47.958;11.366;2023-08-24T08:39:17;35.70;99.90
17948;DHT22;9099;47.958;11.366;2023-08-24T08:41:44;35.80;99.90
17948;DHT22;9099;47.958;11.366;2023-08-24T08:44:13;36.20;99.90
17948;DHT22;9099;47.958;11.366;2023-08-24T08:46:43;36.70;99.90
17948;DHT22;9099;47.958;11.366;2023-08-24T08:49:12;36.80;99.90
17948;DHT22;9099;47.958;11.366;2023-08-24T08:51:41;37.30;99.90
17948;DHT22;9099;47.958;11.366;2023-08-24T08:54:09;37.30;99.90
17948;DHT22;9099;47.958;11.366;2023-08-24T08:56:37;37.60;99.90
17948;DHT22;9099;47.958;11.366;2023-08-24T08:59:07;37.90;99.90
17948;DHT22;9099;47.958;11.366;2023-08-24T09:01:34;38.30;99.90
17948;DHT22;9099;47.958;11.366;2023-08-24T09:04:01;38.60;99.90
17948;DHT22;9099;47.958;11.366;2023-08-24T09:06:28;38.60;99.90
17948;DHT22;9099;47.958;11.366;2023-08-24T09:08:56;38.70;99.90
17948;DHT22;9099;47.958;11.366;2023-08-24T09:11:25;39.20;99.90
17948;DHT22;9099;47.958;11.366;2023-08-24T09:13:52;39.20;99.90
17948;DHT22;9099;47.958;11.366;2023-08-24T09:16:18;39.20;99.90
17948;DHT22;9099;47.958;11.366;2023-08-24T09:18:47;39.30;99.90
17948;DHT22;9099;47.958;11.366;2023-08-24T09:21:15;38.60;99.90
17948;DHT22;9099;47.958;11.366;2023-08-24T09:23:44;38.30;99.90
17948;DHT22;9099;47.958;11.366;2023-08-24T09:26:11;38.40;99.90
17948;DHT22;9099;47.958;11.366;2023-08-24T09:28:42;38.60;99.90
17948;DHT22;9099;47.958;11.366;2023-08-24T09:31:11;38.90;99.90
17948;DHT22;9099;47.958;11.366;2023-08-24T09:33:38;39.40;99.90
17948;DHT22;9099;47.958;11.366;2023-08-24T09:36:06;39.70;99.90
17948;DHT22;9099;47.958;11.366;2023-08-24T09:38:33;39.30;99.90
17948;DHT22;9099;47.958;11.366;2023-08-24T09:41:01;39.40;99.90
17948;DHT22;9099;47.958;11.366;2023-08-24T09:43:30;39.30;99.90
17948;DHT22;9099;47.958;11.366;2023-08-24T09:45:59;38.90;99.90
17948;DHT22;9099;47.958;11.366;2023-08-24T09:48:26;38.70;99.90
17948;DHT22;9099;47.958;11.366;2023-08-24T09:50:53;38.90;99.90
17948;DHT22;9099;47.958;11.366;2023-08-24T09:53:23;39.10;99.90
17948;DHT22;9099;47.958;11.366;2023-08-24T09:55:54;39.50;99.90
17948;DHT22;9099;47.958;11.366;2023-08-24T09:58:22;39.50;99.90
17948;DHT22;9099;47.958;11.366;2023-08-24T10:00:50;39.70;99.90
17948;DHT22;9099;47.958;11.366;2023-08-24T10:03:21;40.00;99.90
17948;DHT22;9099;47.958;11.366;2023-08-24T10:05:50;40.00;99.90
17948;DHT22;9099;47.958;11.366;2023-08-24T10:08:21;40.10;99.90
17948;DHT22;9099;47.958;11.366;2023-08-24T10:10:53;40.30;99.90
17948;DHT22;9099;47.958;11.366;2023-08-24T10:13:26;40.60;99.90
17948;DHT22;9099;47.958;11.366;2023-08-24T10:15:56;40.20;99.90
17948;DHT22;9099;47.958;11.366;2023-08-24T10:18:25;39.80;99.50
17948;DHT22;9099;47.958;11.366;2023-08-24T10:20:52;39.80;99.80
17948;DHT22;9099;47.958;11.366;2023-08-24T10:23:19;40.10;99.50
17948;DHT22;9099;47.958;11.366;2023-08-24T10:25:47;39.70;99.30
17948;DHT22;9099;47.958;11.366;2023-08-24T10:28:15;39.50;99.10
17948;DHT22;9099;47.958;11.366;2023-08-24T10:30:43;39.40;99.90
17948;DHT22;9099;47.958;11.366;2023-08-24T10:33:12;39.50;99.90
17948;DHT22;9099;47.958;11.366;2023-08-24T10:35:47;40.00;99.60
17948;DHT22;9099;47.958;11.366;2023-08-24T10:38:25;40.50;99.90
17948;DHT22;9099;47.958;11.366;2023-08-24T10:40:53;40.60;97.00
17948;DHT22;9099;47.958;11.366;2023-08-24T10:43:20;40.10;95.80
17948;DHT22;9099;47.958;11.366;2023-08-24T10:45:57;40.10;95.70
17948;DHT22;9099;47.958;11.366;2023-08-24T10:48:25;40.40;95.20
17948;DHT22;9099;47.958;11.366;2023-08-24T10:51:18;40.50;96.30
17948;DHT22;9099;47.958;11.366;2023-08-24T10:53:47;40.30;97.30
17948;DHT22;9099;47.958;11.366;2023-08-24T10:56:16;40.10;97.70
17948;DHT22;9099;47.958;11.366;2023-08-24T10:58:43;40.10;95.20
17948;DHT22;9099;47.958;11.366;2023-08-24T11:01:14;39.70;95.30
17948;DHT22;9099;47.958;11.366;2023-08-24T11:03:49;39.30;94.50
17948;DHT22;9099;47.958;11.366;2023-08-24T11:06:21;39.00;95.20
17948;DHT22;9099;47.958;11.366;2023-08-24T11:08:49;38.60;94.70
17948;DHT22;9099;47.958;11.366;2023-08-24T11:11:20;38.50;96.80
17948;DHT22;9099;47.958;11.366;2023-08-24T11:14:15;38.80;95.40
17948;DHT22;9099;47.958;11.366;2023-08-24T11:16:44;39.00;94.50
17948;DHT22;9099;47.958;11.366;2023-08-24T11:19:12;39.10;94.50
17948;DHT22;9099;47.958;11.366;2023-08-24T11:21:41;38.80;93.40
17948;DHT22;9099;47.958;11.366;2023-08-24T11:24:09;38.70;94.90
17948;DHT22;9099;47.958;11.366;2023-08-24T11:26:40;38.80;94.50
17948;DHT22;9099;47.958;11.366;2023-08-24T11:29:08;38.70;95.00
17948;DHT22;9099;47.958;11.366;2023-08-24T11:31:35;38.40;92.40
17948;DHT22;9099;47.958;11.366;2023-08-24T11:34:02;38.00;93.70
17948;DHT22;9099;47.958;11.366;2023-08-24T11:36:29;37.80;93.90
17948;DHT22;9099;47.958;11.366;2023-08-24T11:38:59;37.60;94.00
17948;DHT22;9099;47.958;11.366;2023-08-24T11:41:26;37.40;95.10
17948;DHT22;9099;47.958;11.366;2023-08-24T11:43:59;37.70;95.60
17948;DHT22;9099;47.958;11.366;2023-08-24T11:46:28;37.70;94.30
17948;DHT22;9099;47.958;11.366;2023-08-24T11:48:56;37.60;94.20
17948;DHT22;9099;47.958;11.366;2023-08-24T11:51:23;37.80;96.40
17948;DHT22;9099;47.958;11.366;2023-08-24T11:53:49;38.00;93.60
17948;DHT22;9099;47.958;11.366;2023-08-24T11:56:17;38.20;94.00
17948;DHT22;9099;47.958;11.366;2023-08-24T11:58:48;38.20;94.40
17948;DHT22;9099;47.958;11.366;2023-08-24T12:01:16;38.20;96.10
17948;DHT22;9099;47.958;11.366;2023-08-24T12:03:44;38.10;95.50
17948;DHT22;9099;47.958;11.366;2023-08-24T12:06:12;38.50;95.70
17948;DHT22;9099;47.958;11.366;2023-08-24T12:08:40;39.00;96.50
17948;DHT22;9099;47.958;11.366;2023-08-24T12:11:12;39.00;91.10
17948;DHT22;9099;47.958;11.366;2023-08-24T12:13:45;38.80;95.70
17948;DHT22;9099;47.958;11.366;2023-08-24T12:16:12;39.00;93.90
17948;DHT22;9099;47.958;11.366;2023-08-24T12:18:51;39.30;92.40
17948;DHT22;9099;47.958;11.366;2023-08-24T12:21:19;39.20;91.80
17948;DHT22;9099;47.958;11.366;2023-08-24T12:23:55;39.00;92.50
17948;DHT22;9099;47.958;11.366;2023-08-24T12:26:22;38.90;92.20
17948;DHT22;9099;47.958;11.366;2023-08-24T12:28:51;39.00;94.60
17948;DHT22;9099;47.958;11.366;2023-08-24T12:31:18;38.90;90.90
17948;DHT22;9099;47.958;11.366;2023-08-24T12:33:49;38.90;92.20
17948;DHT22;9099;47.958;11.366;2023-08-24T12:36:23;38.90;93.00
17948;DHT22;9099;47.958;11.366;2023-08-24T12:38:50;39.10;91.00
17948;DHT22;9099;47.958;11.366;2023-08-24T12:41:17;39.10;91.10
17948;DHT22;9099;47.958;11.366;2023-08-24T12:43:44;38.90;92.20
17948;DHT22;9099;47.958;11.366;2023-08-24T12:46:12;38.80;92.70
17948;DHT22;9099;47.958;11.366;2023-08-24T12:48:39;38.80;91.80
17948;DHT22;9099;47.958;11.366;2023-08-24T12:51:05;38.90;91.80
17948;DHT22;9099;47.958;11.366;2023-08-24T12:53:32;38.80;92.10
17948;DHT22;9099;47.958;11.366;2023-08-24T12:55:59;39.00;90.50
17948;DHT22;9099;47.958;11.366;2023-08-24T12:58:26;38.60;90.50
17948;DHT22;9099;47.958;11.366;2023-08-24T13:00:53;38.30;91.00
17948;DHT22;9099;47.958;11.366;2023-08-24T13:03:21;38.10;91.60
17948;DHT22;9099;47.958;11.366;2023-08-24T13:05:48;38.20;92.70
17948;DHT22;9099;47.958;11.366;2023-08-24T13:08:14;38.30;91.70
17948;DHT22;9099;47.958;11.366;2023-08-24T13:10:41;38.20;91.50
17948;DHT22;9099;47.958;11.366;2023-08-24T13:13:08;38.40;92.70
17948;DHT22;9099;47.958;11.366;2023-08-24T13:15:35;38.70;91.50
17948;DHT22;9099;47.958;11.366;2023-08-24T13:18:02;39.10;90.90
17948;DHT22;9099;47.958;11.366;2023-08-24T13:20:30;38.70;91.60
17948;DHT22;9099;47.958;11.366;2023-08-24T13:22:57;38.60;90.60
17948;DHT22;9099;47.958;11.366;2023-08-24T13:25:24;38.80;93.40
17948;DHT22;9099;47.958;11.366;2023-08-24T13:27:50;39.10;92.40
17948;DHT22;9099;47.958;11.366;2023-08-24T13:30:18;39.50;92.90
17948;DHT22;9099;47.958;11.366;2023-08-24T13:32:45;39.50;90.90
17948;DHT22;9099;47.958;11.366;2023-08-24T13:35:12;39.00;89.50
17948;DHT22;9099;47.958;11.366;2023-08-24T13:37:40;39.10;91.70
17948;DHT22;9099;47.958;11.366;2023-08-24T13:40:07;39.60;92.00
17948;DHT22;9099;47.958;11.366;2023-08-24T13:42:34;39.70;87.60
17948;DHT22;9099;47.958;11.366;2023-08-24T13:45:01;39.60;87.50
17948;DHT22;9099;47.958;11.366;2023-08-24T13:47:28;39.60;88.60
17948;DHT22;9099;47.958;11.366;2023-08-24T13:49:55;39.40;89.70
17948;DHT22;9099;47.958;11.366;2023-08-24T13:52:22;39.00;90.40
17948;DHT22;9099;47.958;11.366;2023-08-24T13:54:50;38.70;89.80
17948;DHT22;9099;47.958;11.366;2023-08-24T13:57:17;38.90;90.50
17948;DHT22;9099;47.958;11.366;2023-08-24T13:59:44;39.30;89.40
17948;DHT22;9099;47.958;11.366;2023-08-24T14:02:11;39.40;89.10
17948;DHT22;9099;47.958;11.366;2023-08-24T14:04:38;39.40;90.60
17948;DHT22;9099;47.958;11.366;2023-08-24T14:07:05;39.70;91.90
17948;DHT22;9099;47.958;11.366;2023-08-24T14:09:31;40.20;92.90
17948;DHT22;9099;47.958;11.366;2023-08-24T14:12:00;40.30;90.70
17948;DHT22;9099;47.958;11.366;2023-08-24T14:14:27;40.20;92.10
17948;DHT22;9099;47.958;11.366;2023-08-24T14:16:54;40.00;91.20
17948;DHT22;9099;47.958;11.366;2023-08-24T14:19:21;39.50;91.40
17948;DHT22;9099;47.958;11.366;2023-08-24T14:21:48;39.10;92.80
17948;DHT22;9099;47.958;11.366;2023-08-24T14:24:15;38.90;92.20
17948;DHT22;9099;47.958;11.366;2023-08-24T14:26:42;38.80;91.40
17948;DHT22;9099;47.958;11.366;2023-08-24T14:29:13;38.50;91.80
17948;DHT22;9099;47.958;11.366;2023-08-24T14:31:40;38.30;91.70
17948;DHT22;9099;47.958;11.366;2023-08-24T14:34:07;38.30;93.20
17948;DHT22;9099;47.958;11.366;2023-08-24T14:36:34;38.40;92.40
17948;DHT22;9099;47.958;11.366;2023-08-24T14:39:01;38.50;92.50
17948;DHT22;9099;47.958;11.366;2023-08-24T14:41:28;38.60;90.50
17948;DHT22;9099;47.958;11.366;2023-08-24T14:43:55;38.70;93.20
17948;DHT22;9099;47.958;11.366;2023-08-24T14:46:23;38.80;90.60
17948;DHT22;9099;47.958;11.366;2023-08-24T14:48:50;38.80;90.60
17948;DHT22;9099;47.958;11.366;2023-08-24T14:51:17;38.70;91.30
17948;DHT22;9099;47.958;11.366;2023-08-24T14:53:44;38.70;91.40
17948;DHT22;9099;47.958;11.366;2023-08-24T14:56:11;38.70;91.00
17948;DHT22;9099;47.958;11.366;2023-08-24T14:58:38;38.80;91.10
17948;DHT22;9099;47.958;11.366;2023-08-24T15:01:05;38.90;90.00
17948;DHT22;9099;47.958;11.366;2023-08-24T15:03:33;38.90;90.60
17948;DHT22;9099;47.958;11.366;2023-08-24T15:06:02;38.90;89.90
17948;DHT22;9099;47.958;11.366;2023-08-24T15:08:29;38.90;90.20
17948;DHT22;9099;47.958;11.366;2023-08-24T15:10:58;38.90;91.60
17948;DHT22;9099;47.958;11.366;2023-08-24T15:13:25;38.90;90.50
17948;DHT22;9099;47.958;11.366;2023-08-24T15:15:53;38.90;89.70
17948;DHT22;9099;47.958;11.366;2023-08-24T15:18:20;38.80;90.40
17948;DHT22;9099;47.958;11.366;2023-08-24T15:20:48;38.60;90.30
17948;DHT22;9099;47.958;11.366;2023-08-24T15:23:23;38.50;90.60
17948;DHT22;9099;47.958;11.366;2023-08-24T15:25:50;38.50;91.20
17948;DHT22;9099;47.958;11.366;2023-08-24T15:28:17;38.40;90.10
17948;DHT22;9099;47.958;11.366;2023-08-24T15:30:43;38.40;91.80
17948;DHT22;9099;47.958;11.366;2023-08-24T15:33:10;38.30;92.20
17948;DHT22;9099;47.958;11.366;2023-08-24T15:35:39;38.20;90.50
17948;DHT22;9099;47.958;11.366;2023-08-24T15:38:07;38.10;90.90
17948;DHT22;9099;47.958;11.366;2023-08-24T15:40:34;38.00;91.70